createdAt,value
2023-02-08T00:00:07.348Z,101627.81
2023-02-08T00:06:10.500Z,101627.94
2023-02-08T00:12:12.399Z,101626.38
2023-02-08T00:18:14.816Z,101621.63
2023-02-08T00:24:16.738Z,101620.34
2023-02-08T00:30:18.740Z,101624.41
2023-02-08T00:36:20.849Z,101618.34
2023-02-08T00:42:22.993Z,101615.63
2023-02-08T00:48:26.801Z,101619.94
2023-02-08T00:54:28.742Z,101625.41
2023-02-08T01:00:30.692Z,101617.13
2023-02-08T01:06:32.780Z,101616.38
2023-02-08T01:12:34.672Z,101619.81
2023-02-08T01:18:37.378Z,101614.13
2023-02-08T01:24:39.285Z,101600.09
2023-02-08T01:30:41.537Z,101599.19
2023-02-08T01:36:43.729Z,101593.91
2023-02-08T01:42:45.610Z,101583.41
2023-02-08T01:48:48.614Z,101585.66
2023-02-08T01:55:13.682Z,101577.28
2023-02-08T02:01:17.002Z,101563.41
2023-02-08T02:07:22.599Z,101546.00
2023-02-08T02:13:27.246Z,101555.78
2023-02-08T02:19:37.981Z,101553.06
2023-02-08T02:26:23.101Z,101556.50
2023-02-08T02:32:51.938Z,101550.16
2023-02-08T02:39:18.255Z,101564.19
2023-02-08T02:45:58.074Z,101571.28
2023-02-08T02:52:12.408Z,101560.41
2023-02-08T02:58:17.892Z,101570.34
2023-02-08T03:04:39.633Z,101576.22
2023-02-08T03:11:20.850Z,101575.44
2023-02-08T03:17:29.237Z,101564.13
2023-02-08T03:23:43.954Z,101564.88
2023-02-08T03:30:11.150Z,101565.66
2023-02-08T03:36:58.601Z,101566.75
2023-02-08T03:43:09.797Z,101562.19
2023-02-08T03:49:27.726Z,101564.59
2023-02-08T03:55:34.380Z,101573.34
2023-02-08T04:01:47.332Z,101569.34
2023-02-08T04:07:49.259Z,101571.94
2023-02-08T04:13:51.142Z,101575.50
2023-02-08T04:19:53.012Z,101559.84
2023-02-08T04:25:54.938Z,101558.19
2023-02-08T04:31:56.846Z,101562.41
2023-02-08T04:37:58.782Z,101572.88
2023-02-08T04:44:00.724Z,101571.94
2023-02-08T04:50:03.750Z,101563.06
2023-02-08T04:56:05.882Z,101552.63
2023-02-08T05:02:07.774Z,101556.41
2023-02-08T05:08:09.744Z,101555.56
2023-02-08T05:14:11.653Z,101553.41
2023-02-08T05:20:14.151Z,101555.94
2023-02-08T05:26:16.425Z,101570.53
2023-02-08T05:32:18.337Z,101570.63
2023-02-08T05:38:20.222Z,101575.13
2023-02-08T05:44:22.353Z,101583.06
2023-02-08T05:50:24.293Z,101581.50
2023-02-08T05:56:26.202Z,101590.38
2023-02-08T06:02:28.098Z,101591.00
2023-02-08T06:08:30.003Z,101583.91
2023-02-08T06:14:31.928Z,101592.53
2023-02-08T06:20:34.053Z,101591.69
2023-02-08T06:26:35.978Z,101588.06
2023-02-08T06:32:38.036Z,101589.38
2023-02-08T06:38:39.997Z,101591.28
2023-02-08T06:44:53.936Z,101597.19
2023-02-08T06:50:56.709Z,101595.25
2023-02-08T06:56:58.605Z,101589.22
2023-02-08T07:03:00.867Z,101584.94
2023-02-08T07:09:04.197Z,101566.34
2023-02-08T07:15:06.496Z,101588.09
2023-02-08T07:21:08.666Z,101585.22
2023-02-08T07:27:13.097Z,101588.13
2023-02-08T07:33:14.980Z,101593.06
2023-02-08T07:39:16.892Z,101588.00
2023-02-08T07:45:18.890Z,101587.31
2023-02-08T07:51:20.825Z,101589.03
2023-02-08T07:57:23.431Z,101587.25
2023-02-08T08:03:25.371Z,101586.91
2023-02-08T08:09:27.291Z,101585.47
2023-02-08T08:15:29.248Z,101573.28
2023-02-08T08:21:31.165Z,101576.38
2023-02-08T08:27:33.141Z,101580.91
2023-02-08T08:33:35.024Z,101580.44
2023-02-08T08:39:37.239Z,101566.03
2023-02-08T08:45:39.121Z,101561.19
2023-02-08T08:51:41.060Z,101573.41
2023-02-08T08:57:42.968Z,101560.00
2023-02-08T09:03:44.935Z,101563.31
2023-02-08T09:09:48.034Z,101550.53
2023-02-08T09:15:50.036Z,101540.25
2023-02-08T09:21:52.021Z,101545.00
2023-02-08T09:27:54.012Z,101545.41
2023-02-08T09:33:59.808Z,101544.19
2023-02-08T09:40:01.842Z,101546.59
2023-02-08T09:46:13.667Z,101538.91
2023-02-08T09:52:21.734Z,101542.53
2023-02-08T09:59:02.303Z,101534.63
2023-02-08T10:05:11.403Z,101529.53
2023-02-08T10:11:32.125Z,101535.31
2023-02-08T10:18:11.962Z,101531.59
2023-02-08T10:25:16.285Z,101536.56
2023-02-08T10:31:58.372Z,101527.53
2023-02-08T10:38:00.371Z,101533.50
2023-02-08T10:44:07.910Z,101532.13
2023-02-08T10:50:39.238Z,101515.88
2023-02-08T10:56:58.171Z,101511.13
2023-02-08T11:03:25.571Z,101506.00
2023-02-08T11:09:29.557Z,101498.66
2023-02-08T11:15:39.924Z,101496.78
2023-02-08T11:21:42.245Z,101487.50
2023-02-08T11:27:49.233Z,101493.19
2023-02-08T11:34:11.352Z,101480.31
2023-02-08T11:40:31.784Z,101474.41
2023-02-08T11:46:36.430Z,101471.78
2023-02-08T11:52:43.758Z,101469.88
2023-02-08T11:59:14.981Z,101462.16
2023-02-08T12:05:44.810Z,101466.13
2023-02-08T12:11:52.702Z,101457.97
2023-02-08T12:18:07.543Z,101450.31
2023-02-08T12:24:31.330Z,101453.81
2023-02-08T12:30:37.593Z,101431.63
2023-02-08T12:37:29.013Z,101419.66
2023-02-08T12:43:51.466Z,101408.00
2023-02-08T12:50:03.866Z,101418.97
2023-02-08T12:56:23.266Z,101408.63
2023-02-08T13:03:19.039Z,101403.28
2023-02-08T13:09:35.902Z,101398.16
2023-02-08T13:15:48.989Z,101396.31
2023-02-08T13:21:53.978Z,101382.06
2023-02-08T13:27:59.734Z,101382.22
2023-02-08T13:34:26.703Z,101364.00
2023-02-08T13:40:35.198Z,101363.84
2023-02-08T13:46:49.141Z,101348.59
2023-02-08T13:52:52.470Z,101342.78
2023-02-08T13:59:01.195Z,101333.91
2023-02-08T14:05:34.552Z,101316.78
2023-02-08T14:12:05.699Z,101316.53
2023-02-08T14:18:27.050Z,101319.81
2023-02-08T14:24:49.142Z,101312.03
2023-02-08T14:30:54.737Z,101300.16
2023-02-08T14:37:29.809Z,101307.50
2023-02-08T14:43:39.227Z,101281.88
2023-02-08T14:49:45.310Z,101284.47
2023-02-08T14:56:01.094Z,101282.19
2023-02-08T15:02:14.875Z,101289.63
2023-02-08T15:08:21.031Z,101287.69
2023-02-08T15:14:23.047Z,101272.03
2023-02-08T15:20:29.638Z,101283.72
2023-02-08T15:26:31.538Z,101267.66
2023-02-08T15:32:33.940Z,101278.75
2023-02-08T15:38:38.807Z,101270.22
2023-02-08T15:44:44.422Z,101260.16
2023-02-08T15:50:46.432Z,101260.66
2023-02-08T15:56:58.993Z,101261.13
2023-02-08T16:03:20.345Z,101252.53
2023-02-08T16:09:28.461Z,101252.56
2023-02-08T16:15:44.890Z,101255.56
2023-02-08T16:21:47.397Z,101250.91
2023-02-08T16:27:49.674Z,101253.47
2023-02-08T16:34:01.216Z,101255.38
2023-02-08T16:40:28.583Z,101253.72
2023-02-08T16:46:30.604Z,101254.06
2023-02-08T16:52:33.995Z,101250.47
2023-02-08T16:58:35.891Z,101235.66
2023-02-08T17:04:37.811Z,101246.13
2023-02-08T17:10:39.721Z,101236.69
2023-02-08T17:16:41.856Z,101228.31
2023-02-08T17:22:45.019Z,101231.66
2023-02-08T17:28:47.038Z,101226.00
2023-02-08T17:34:48.953Z,101215.16
2023-02-08T17:40:50.907Z,101212.00
2023-02-08T17:46:52.838Z,101201.13
2023-02-08T17:52:55.630Z,101206.69
2023-02-08T17:59:00.594Z,101200.94
2023-02-08T18:05:02.571Z,101201.84
2023-02-08T18:11:07.991Z,101191.50
2023-02-08T18:17:10.139Z,101191.22
2023-02-08T18:23:12.937Z,101198.84
2023-02-08T18:29:14.976Z,101193.97
2023-02-08T18:35:17.206Z,101194.06
2023-02-08T18:41:26.057Z,101190.50
2023-02-08T18:47:27.966Z,101175.28
2023-02-08T18:53:33.560Z,101170.81
2023-02-08T18:59:36.845Z,101161.25
2023-02-08T19:05:39.120Z,101169.44
2023-02-08T19:11:41.640Z,101160.22
2023-02-08T19:17:44.109Z,101148.75
2023-02-08T19:23:48.155Z,101134.94
2023-02-08T19:29:52.214Z,101117.34
2023-02-08T19:35:54.131Z,101109.97
2023-02-08T19:41:58.657Z,101103.28
2023-02-08T19:48:01.951Z,101089.25
2023-02-08T19:54:09.251Z,101091.09
2023-02-08T20:00:22.922Z,101078.94
2023-02-08T20:06:30.693Z,101075.44
2023-02-08T20:12:32.587Z,101085.31
2023-02-08T20:18:34.479Z,101094.53
2023-02-08T20:24:36.382Z,101088.94
2023-02-08T20:30:40.814Z,101082.09
2023-02-08T20:37:05.327Z,101081.38
2023-02-08T20:43:08.511Z,101080.06
2023-02-08T20:49:21.348Z,101079.28
2023-02-08T20:55:23.251Z,101065.53
2023-02-08T21:01:28.058Z,101075.88
2023-02-08T21:07:29.969Z,101072.44
2023-02-08T21:13:32.034Z,101057.84
2023-02-08T21:19:33.940Z,101054.44
2023-02-08T21:25:44.422Z,101061.69
2023-02-08T21:31:47.356Z,101059.28
2023-02-08T21:37:49.410Z,101061.16
2023-02-08T21:43:54.481Z,101047.19
2023-02-08T21:50:14.683Z,101055.50
2023-02-08T21:56:16.604Z,101047.19
2023-02-08T22:02:25.918Z,101036.75
2023-02-08T22:08:28.139Z,101038.44
2023-02-08T22:14:30.015Z,101026.97
2023-02-08T22:20:32.217Z,101027.69
2023-02-08T22:26:34.153Z,101027.19
2023-02-08T22:32:39.330Z,101025.06
2023-02-08T22:38:41.269Z,101024.41
2023-02-08T22:44:45.244Z,101019.38
2023-02-08T22:50:47.460Z,101020.66
2023-02-08T22:56:49.686Z,101025.13
2023-02-08T23:02:51.645Z,101030.03
2023-02-08T23:08:53.748Z,101028.59
2023-02-08T23:14:56.017Z,101043.56
2023-02-08T23:20:58.010Z,101051.97
2023-02-08T23:27:00.138Z,101049.56
2023-02-08T23:33:02.022Z,101048.44
2023-02-08T23:39:04.435Z,101042.63
2023-02-08T23:45:07.297Z,101030.03
2023-02-08T23:51:09.786Z,101041.91
2023-02-08T23:57:11.845Z,101046.16
